Terminal Aerodrome Forecast
Issued by NWS Paducah, KY

Home | Current Version | Previous Version | Text Only | Print | Product List | Glossary Off
Versions: 1 2 3 4 5 6 7 8 9 10 11 12

000
FTUS43 KPAH 021100
TAFEVV
TAF
KEVV 021120Z 0212/0312 17006KT P6SM SCT060 BKN250
     FM022000 18009KT P6SM VCTS BKN050CB
     FM030000 17010KT P6SM BKN040
     FM030700 23015G25KT 2SM +TSRA BR BKN025CB
     FM030800 25007KT 6SM -SHRA BR BKN030=

USA.gov is the U.S. government's official web portal to all federal, state and local government web resources and services.